Time;durP1;ratioP1;P1;durP2;ratioP2;P2;SDS_P1;SDS_P2;PMS_P1;PMS_P2;Temp;Humidity;BMP_temperature;BMP_pressure;BME280_temperature;BME280_humidity;BME280_pressure;Samples;Min_cycle;Max_cycle;Signal;HPM_P1;HPM_P2
2023/10/20 00:01:48;;;;;;;;;;;;;;;14.67;100.00;96936.98;135843;1272;22444;-82
2023/10/20 00:04:51;;;;;;;;;;;;;;;15.30;100.00;96929.13;135827;1272;22543;-80
2023/10/20 00:07:54;;;;;;;;;;;;;;;15.72;100.00;96924.05;135773;1272;22511;-81
2023/10/20 00:10:58;;;;;;;;;;;;;;;16.18;100.00;96920.98;135840;1272;22519;-81
2023/10/20 00:14:01;;;;;;;;;;;;;;;16.48;100.00;96917.80;136052;1272;22579;-80
2023/10/20 00:17:04;;;;;;;;;;;;;;;16.12;100.00;96912.79;136561;1272;22593;-81
2023/10/20 00:20:09;;;;;;;;;;;;;;;16.36;100.00;96912.33;136530;1272;22837;-80
2023/10/20 00:23:14;;;;;;;;;;;;;;;16.59;100.00;96911.40;136745;1272;22543;-80
2023/10/20 00:26:17;;;;;;;;;;;;;;;16.65;100.00;96910.61;136274;1272;22463;-80
2023/10/20 00:29:20;;;;;;;;;;;;;;;15.44;100.00;96910.52;136225;1272;22595;-82
2023/10/20 00:32:22;;;;;;;;;;;;;;;14.20;100.00;96917.18;136189;1272;23565;-82
2023/10/20 00:35:25;;;;;;;;;;;;;;;13.27;100.00;96922.85;135960;1272;22566;-83
2023/10/20 00:38:27;;;;;;;;;;;;;;;12.59;100.00;96920.70;135883;1272;23351;-81
2023/10/20 00:41:30;;;;;;;;;;;;;;;12.09;100.00;96919.89;135852;1272;22511;-81
2023/10/20 00:44:33;;;;;;;;;;;;;;;11.73;100.00;96920.20;135903;1272;22515;-83
2023/10/20 00:47:36;;;;;;;;;;;;;;;11.44;100.00;96922.08;136048;1272;22552;-82
2023/10/20 00:50:38;;;;;;;;;;;;;;;11.21;100.00;96924.47;136085;1272;22723;-82
2023/10/20 00:53:41;;;;;;;;;;;;;;;11.03;100.00;96926.94;135981;1272;22962;-83
2023/10/20 00:56:44;;;;;;;;;;;;;;;10.84;100.00;96927.30;135889;1272;22518;-84
2023/10/20 00:59:50;;;;;;;;;;;;;;;10.71;100.00;96931.39;135905;1272;24173;-83
2023/10/20 01:02:52;;;;;;;;;;;;;;;10.59;100.00;96921.37;135936;1272;22524;-84
2023/10/20 01:05:55;;;;;;;;;;;;;;;10.46;100.00;96908.91;135808;1272;22843;-83
2023/10/20 01:08:58;;;;;;;;;;;;;;;10.36;100.00;96906.80;135911;1272;25383;-81
2023/10/20 01:12:00;;;;;;;;;;;;;;;11.18;100.00;96893.50;135836;1272;22531;-80
2023/10/20 01:15:05;;;;;;;;;;;;;;;13.29;100.00;96879.42;135849;1272;22449;-80
2023/10/20 01:18:07;;;;;;;;;;;;;;;14.80;100.00;96874.16;135906;1272;22529;-83
2023/10/20 01:21:12;;;;;;;;;;;;;;;15.84;100.00;96863.27;135846;1272;22555;-81
2023/10/20 01:24:14;;;;;;;;;;;;;;;16.37;100.00;96866.66;135833;1272;22511;-79
2023/10/20 01:27:17;;;;;;;;;;;;;;;16.81;100.00;96872.17;135896;1272;22517;-80
2023/10/20 01:30:21;;;;;;;;;;;;;;;17.25;100.00;96863.15;135930;1272;22515;-81
2023/10/20 01:33:26;;;;;;;;;;;;;;;17.49;100.00;96863.46;135899;1272;24279;-80
2023/10/20 01:36:28;;;;;;;;;;;;;;;17.56;100.00;96861.20;135759;1272;22561;-82
2023/10/20 01:39:31;;;;;;;;;;;;;;;16.40;100.00;96854.23;135848;1272;22528;-82
2023/10/20 01:42:36;;;;;;;;;;;;;;;14.90;100.00;96844.90;135941;1272;22515;-82
2023/10/20 01:45:38;;;;;;;;;;;;;;;13.77;100.00;96838.50;135928;1266;22491;-83
2023/10/20 01:48:41;;;;;;;;;;;;;;;12.93;100.00;96829.20;136072;1272;22628;-82
2023/10/20 01:51:43;;;;;;;;;;;;;;;12.30;100.00;96832.69;135924;1272;24225;-82
2023/10/20 01:54:46;;;;;;;;;;;;;;;11.87;100.00;96839.89;135895;1266;25872;-83
2023/10/20 01:57:48;;;;;;;;;;;;;;;11.52;100.00;96838.45;135853;1272;22748;-80
2023/10/20 02:00:50;;;;;;;;;;;;;;;11.23;100.00;96837.36;135758;1272;22548;-81
2023/10/20 02:03:53;;;;;;;;;;;;;;;11.02;100.00;96831.05;135692;1272;22569;-80
2023/10/20 02:06:58;;;;;;;;;;;;;;;10.83;100.00;96822.08;135809;1272;24731;-83
2023/10/20 02:10:00;;;;;;;;;;;;;;;10.69;100.00;96820.10;135930;1272;24192;-81
2023/10/20 02:13:03;;;;;;;;;;;;;;;10.58;100.00;96820.85;135988;1272;22528;-82
2023/10/20 02:16:06;;;;;;;;;;;;;;;10.45;100.00;96828.40;135792;1272;22775;-81
2023/10/20 02:19:10;;;;;;;;;;;;;;;10.37;100.00;96832.89;135834;1272;22630;-80
2023/10/20 02:22:13;;;;;;;;;;;;;;;10.32;100.00;96831.94;135692;1272;23277;-82
2023/10/20 02:25:16;;;;;;;;;;;;;;;10.31;100.00;96827.61;136244;1272;22511;-81
2023/10/20 02:28:18;;;;;;;;;;;;;;;10.29;100.00;96818.45;136222;1272;23156;-82
2023/10/20 02:31:21;;;;;;;;;;;;;;;10.27;100.00;96805.10;136196;1272;22581;-81
2023/10/20 02:34:24;;;;;;;;;;;;;;;10.23;100.00;96802.75;136189;1272;22536;-81
2023/10/20 02:37:27;;;;;;;;;;;;;;;10.18;100.00;96803.14;136389;1272;22528;-81
2023/10/20 02:40:30;;;;;;;;;;;;;;;10.15;100.00;96805.80;135699;1272;22512;-81
2023/10/20 02:43:32;;;;;;;;;;;;;;;10.15;100.00;96800.95;135689;1272;22718;-81
2023/10/20 02:46:35;;;;;;;;;;;;;;;10.14;100.00;96798.88;136374;1272;23134;-81
2023/10/20 02:49:37;;;;;;;;;;;;;;;10.13;100.00;96806.55;136126;1272;22535;-83
2023/10/20 02:52:40;;;;;;;;;;;;;;;10.12;100.00;96805.52;135794;1272;25274;-81
2023/10/20 02:55:42;;;;;;;;;;;;;;;10.10;100.00;96806.60;136198;1272;22524;-81
2023/10/20 02:58:45;;;;;;;;;;;;;;;10.07;100.00;96809.09;136286;1272;22537;-81
2023/10/20 03:01:47;;;;;;;;;;;;;;;10.05;100.00;96808.79;136223;1272;22536;-81
2023/10/20 03:04:49;;;;;;;;;;;;;;;10.03;100.00;96810.04;136006;1272;22622;-82
2023/10/20 03:07:52;;;;;;;;;;;;;;;10.00;100.00;96817.73;136203;1272;22508;-81
2023/10/20 03:10:54;;;;;;;;;;;;;;;10.01;100.00;96819.97;136362;1272;22990;-81
2023/10/20 03:13:57;;;;;;;;;;;;;;;10.02;100.00;96828.30;136176;1272;22563;-82
2023/10/20 03:17:00;;;;;;;;;;;;;;;10.02;100.00;96833.33;136158;1272;22518;-81
2023/10/20 03:20:08;;;;;;;;;;;;;;;10.01;100.00;96829.02;136018;1271;22539;-81
2023/10/20 03:23:10;;;;;;;;;;;;;;;10.00;100.00;96809.56;136177;1272;25510;-81
2023/10/20 03:26:13;;;;;;;;;;;;;;;9.99;100.00;96802.29;135507;1272;22531;-83
2023/10/20 03:29:15;;;;;;;;;;;;;;;9.99;100.00;96808.02;136103;1271;22540;-81
2023/10/20 03:32:18;;;;;;;;;;;;;;;9.98;100.00;96803.52;136028;1272;22518;-81
2023/10/20 03:35:21;;;;;;;;;;;;;;;9.98;100.00;96800.76;135898;1272;22536;-81
2023/10/20 03:38:23;;;;;;;;;;;;;;;9.97;100.00;96784.27;135860;1272;22515;-81
2023/10/20 03:41:26;;;;;;;;;;;;;;;9.96;100.00;96769.86;135731;1272;22612;-81
2023/10/20 03:44:28;;;;;;;;;;;;;;;9.95;100.00;96764.15;136399;1272;22929;-80
2023/10/20 03:47:34;;;;;;;;;;;;;;;9.92;100.00;96756.71;136448;1272;22548;-81
2023/10/20 03:50:38;;;;;;;;;;;;;;;9.92;100.00;96758.28;136452;1272;22522;-78
2023/10/20 03:53:46;;;;;;;;;;;;;;;9.92;100.00;96759.33;136524;1272;22449;-80
2023/10/20 03:56:51;;;;;;;;;;;;;;;9.92;100.00;96759.52;136518;1272;22932;-80
2023/10/20 03:59:54;;;;;;;;;;;;;;;9.93;100.00;96755.31;136454;1272;24205;-77
2023/10/20 04:02:56;;;;;;;;;;;;;;;9.98;100.00;96761.83;136368;1272;22654;-82
2023/10/20 04:06:00;;;;;;;;;;;;;;;10.01;100.00;96763.52;136118;1272;22448;-79
2023/10/20 04:09:07;;;;;;;;;;;;;;;10.02;100.00;96770.79;135948;1272;23202;-80
2023/10/20 04:12:10;;;;;;;;;;;;;;;10.03;100.00;96776.34;135701;1272;22656;-79
2023/10/20 04:15:15;;;;;;;;;;;;;;;10.02;100.00;96783.47;135843;1272;22596;-80
2023/10/20 04:18:17;;;;;;;;;;;;;;;10.03;100.00;96783.45;135645;1272;22692;-81
2023/10/20 04:21:20;;;;;;;;;;;;;;;10.04;100.00;96776.99;135712;1272;22503;-80
2023/10/20 04:24:22;;;;;;;;;;;;;;;10.07;100.00;96767.05;135492;1272;23101;-79
2023/10/20 04:27:39;;;;;;;;;;;;;;;10.06;100.00;96760.45;135546;1271;25436;-79
2023/10/20 04:51:18;;;;;;;;;;;;;;;11.81;100.00;96760.69;135483;1272;23932;-81
2023/10/20 04:54:22;;;;;;;;;;;;;;;13.89;100.00;96760.28;135399;1272;22529;-77
2023/10/20 04:57:50;;;;;;;;;;;;;;;15.19;100.00;96748.88;135237;1272;22996;-82
2023/10/20 05:01:03;;;;;;;;;;;;;;;16.11;100.00;96750.19;136665;1269;22519;-82
2023/10/20 05:04:13;;;;;;;;;;;;;;;16.69;100.00;96748.73;136613;1272;22561;-79
2023/10/20 05:07:18;;;;;;;;;;;;;;;16.86;100.00;96747.59;136569;1272;22515;-78
2023/10/20 05:10:21;;;;;;;;;;;;;;;16.57;100.00;96752.24;135197;1272;22510;-80
2023/10/20 05:13:23;;;;;;;;;;;;;;;16.37;100.00;96756.08;135081;1272;22562;-79
2023/10/20 05:16:28;;;;;;;;;;;;;;;16.31;100.00;96767.23;135253;1272;22512;-79
2023/10/20 05:19:32;;;;;;;;;;;;;;;16.23;100.00;96770.19;135102;1272;23590;-80
2023/10/20 05:22:35;;;;;;;;;;;;;;;15.92;100.00;96767.69;135153;1272;23135;-79
2023/10/20 05:25:38;;;;;;;;;;;;;;;15.36;100.00;96765.05;135287;1272;23162;-79
2023/10/20 05:28:40;;;;;;;;;;;;;;;15.27;100.00;96771.51;135267;1272;22550;-80
2023/10/20 05:31:43;;;;;;;;;;;;;;;15.26;100.00;96774.37;135146;1272;22515;-80
2023/10/20 05:34:46;;;;;;;;;;;;;;;15.29;100.00;96779.14;135123;1272;22588;-80
2023/10/20 05:37:48;;;;;;;;;;;;;;;15.36;100.00;96776.95;135104;1272;26021;-80
2023/10/20 05:40:51;;;;;;;;;;;;;;;15.35;100.00;96768.74;136758;1272;22860;-79
2023/10/20 05:43:54;;;;;;;;;;;;;;;15.43;100.00;96765.27;135310;1272;22550;-79
2023/10/20 05:46:57;;;;;;;;;;;;;;;15.42;100.00;96756.89;135205;1272;22757;-82
2023/10/20 05:50:01;;;;;;;;;;;;;;;15.49;100.00;96755.57;135142;1272;23105;-80
2023/10/20 05:53:03;;;;;;;;;;;;;;;15.50;100.00;96752.17;135117;1272;22560;-80
2023/10/20 05:56:06;;;;;;;;;;;;;;;15.68;100.00;96755.20;136982;1272;22524;-79
2023/10/20 05:59:09;;;;;;;;;;;;;;;15.68;100.00;96760.45;135006;1272;23011;-80
2023/10/20 06:02:11;;;;;;;;;;;;;;;15.73;100.00;96752.02;135101;1272;23421;-78
2023/10/20 06:05:16;;;;;;;;;;;;;;;15.64;100.00;96747.81;135205;1272;22515;-81
2023/10/20 06:08:18;;;;;;;;;;;;;;;15.49;100.00;96763.27;135301;1272;25304;-81
2023/10/20 06:11:21;;;;;;;;;;;;;;;15.47;100.00;96772.46;136690;1272;25245;-79
2023/10/20 06:14:25;;;;;;;;;;;;;;;15.61;100.00;96767.54;135398;1272;22539;-81
2023/10/20 06:17:27;;;;;;;;;;;;;;;15.82;100.00;96773.89;135261;1272;22586;-80
2023/10/20 06:20:30;;;;;;;;;;;;;;;15.98;100.00;96765.69;135391;1265;24298;-80
2023/10/20 06:23:33;;;;;;;;;;;;;;;15.98;100.00;96763.93;135246;1272;25430;-81
2023/10/20 06:26:35;;;;;;;;;;;;;;;15.83;100.00;96767.89;136199;1272;24784;-82
2023/10/20 06:29:47;;;;;;;;;;;;;;;15.87;100.00;96762.62;136074;1275;22523;-80
2023/10/20 06:32:56;;;;;;;;;;;;;;;15.81;100.00;96758.34;136215;1275;22546;-82
2023/10/20 06:36:05;;;;;;;;;;;;;;;15.83;100.00;96759.29;136246;1275;22535;-81
2023/10/20 06:39:12;;;;;;;;;;;;;;;15.81;100.00;96756.92;134936;1275;22611;-81
2023/10/20 06:42:17;;;;;;;;;;;;;;;15.87;100.00;96753.88;136193;1275;22966;-82
2023/10/20 06:45:19;;;;;;;;;;;;;;;15.86;100.00;96749.32;136295;1272;26173;-83
2023/10/20 06:48:22;;;;;;;;;;;;;;;15.64;100.00;96744.28;136386;1272;22540;-81
2023/10/20 06:51:25;;;;;;;;;;;;;;;15.64;100.00;96747.11;135234;1272;22597;-81
2023/10/20 06:54:30;;;;;;;;;;;;;;;15.81;100.00;96751.83;135209;1272;22565;-80
2023/10/20 06:57:33;;;;;;;;;;;;;;;15.95;100.00;96755.61;136431;1272;22561;-80
2023/10/20 07:00:36;;;;;;;;;;;;;;;16.03;100.00;96743.02;136550;1272;22524;-81
2023/10/20 07:03:38;;;;;;;;;;;;;;;15.87;100.00;96736.14;136474;1272;22564;-81
2023/10/20 07:06:41;;;;;;;;;;;;;;;15.64;100.00;96732.91;136397;1272;22536;-81
2023/10/20 07:09:44;;;;;;;;;;;;;;;15.70;100.00;96737.77;136500;1272;22512;-81
2023/10/20 07:12:47;;;;;;;;;;;;;;;15.81;100.00;96740.26;136470;1272;22507;-80
2023/10/20 07:15:56;;;;;;;;;;;;;;;15.82;100.00;96743.57;135397;1272;25442;-82
2023/10/20 07:18:59;;;;;;;;;;;;;;;15.24;100.00;96737.48;136479;1272;22498;-81
2023/10/20 07:22:02;;;;;;;;;;;;;;;14.50;100.00;96729.83;136391;1272;25401;-82
2023/10/20 07:25:05;;;;;;;;;;;;;;;13.88;100.00;96717.14;136638;1272;22538;-80
2023/10/20 07:28:07;;;;;;;;;;;;;;;13.41;100.00;96708.98;136588;1272;22551;-81
2023/10/20 07:31:11;;;;;;;;;;;;;;;13.07;100.00;96703.58;136262;1272;397281;-81
2023/10/20 07:34:14;;;;;;;;;;;;;;;12.83;100.00;96702.92;136587;1272;22545;-82
2023/10/20 07:37:17;;;;;;;;;;;;;;;12.60;100.00;96709.55;136599;1272;26006;-82
2023/10/20 07:40:20;;;;;;;;;;;;;;;12.45;100.00;96704.78;136383;1272;22535;-82
2023/10/20 07:43:22;;;;;;;;;;;;;;;12.34;100.00;96707.02;136233;1269;23055;-81
2023/10/20 07:46:25;;;;;;;;;;;;;;;12.22;100.00;96707.20;136415;1272;22903;-80
2023/10/20 07:49:27;;;;;;;;;;;;;;;12.16;100.00;96708.06;136513;1257;22516;-80
2023/10/20 07:52:30;;;;;;;;;;;;;;;12.15;100.00;96704.96;135419;1272;22723;-79
2023/10/20 07:55:33;;;;;;;;;;;;;;;12.15;100.00;96702.50;135436;1272;22489;-80
2023/10/20 07:58:35;;;;;;;;;;;;;;;12.15;100.00;96708.61;136733;1269;22877;-79
2023/10/20 08:01:38;;;;;;;;;;;;;;;12.14;100.00;96708.45;135074;1272;22509;-81
2023/10/20 08:04:43;;;;;;;;;;;;;;;12.14;100.00;96717.87;135108;1272;22541;-81
2023/10/20 08:07:48;;;;;;;;;;;;;;;12.16;100.00;96723.77;136635;1272;22527;-81
2023/10/20 08:10:51;;;;;;;;;;;;;;;12.20;100.00;96715.44;136604;1272;22982;-81
2023/10/20 08:13:55;;;;;;;;;;;;;;;12.29;100.00;96699.84;136520;1272;22619;-80
2023/10/20 08:17:03;;;;;;;;;;;;;;;12.41;100.00;96692.86;136597;1272;22935;-81
2023/10/20 08:20:09;;;;;;;;;;;;;;;12.60;100.00;96697.34;136776;1272;22536;-82
2023/10/20 08:23:11;;;;;;;;;;;;;;;12.71;100.00;96694.39;136802;1272;22497;-84
2023/10/20 08:26:14;;;;;;;;;;;;;;;12.86;100.00;96694.29;136704;1272;22565;-83
2023/10/20 08:29:16;;;;;;;;;;;;;;;13.01;100.00;96691.54;136793;1272;22598;-83
2023/10/20 08:32:19;;;;;;;;;;;;;;;13.18;100.00;96690.34;136789;1269;22531;-83
2023/10/20 08:35:22;;;;;;;;;;;;;;;13.34;100.00;96678.27;136648;1272;24289;-83
2023/10/20 08:38:25;;;;;;;;;;;;;;;13.52;100.00;96671.92;136739;1272;23309;-83
2023/10/20 08:41:28;;;;;;;;;;;;;;;13.65;100.00;96664.64;136971;1272;22571;-82
2023/10/20 08:44:30;;;;;;;;;;;;;;;13.79;100.00;96662.20;136891;1272;22542;-82
2023/10/20 08:47:33;;;;;;;;;;;;;;;13.90;100.00;96659.56;137007;1272;22564;-81
2023/10/20 08:50:35;;;;;;;;;;;;;;;14.04;100.00;96665.00;136700;1272;22546;-80
2023/10/20 08:53:37;;;;;;;;;;;;;;;14.17;100.00;96668.03;136808;1272;22532;-82
2023/10/20 08:56:42;;;;;;;;;;;;;;;14.31;100.00;96677.81;137026;1272;22559;-81
2023/10/20 08:59:44;;;;;;;;;;;;;;;14.45;100.00;96680.31;136927;1270;22518;-82
2023/10/20 09:02:47;;;;;;;;;;;;;;;14.44;100.00;96670.91;136885;1272;22572;-82
2023/10/20 09:05:50;;;;;;;;;;;;;;;14.47;100.00;96654.67;136811;1272;22535;-82
2023/10/20 09:08:52;;;;;;;;;;;;;;;14.47;100.00;96648.39;136599;1272;22543;-81
2023/10/20 09:11:55;;;;;;;;;;;;;;;14.49;100.00;96655.13;135220;1272;22895;-82
2023/10/20 09:14:57;;;;;;;;;;;;;;;14.53;100.00;96657.27;136539;1271;22538;-82
2023/10/20 09:18:00;;;;;;;;;;;;;;;14.61;100.00;96649.04;136389;1272;22675;-82
2023/10/20 09:21:04;;;;;;;;;;;;;;;14.67;100.00;96635.52;136608;1272;22819;-81
2023/10/20 09:24:07;;;;;;;;;;;;;;;14.77;100.00;96624.66;136434;1272;24289;-82
2023/10/20 09:27:11;;;;;;;;;;;;;;;14.87;100.00;96618.11;136425;1272;22523;-78
2023/10/20 09:30:14;;;;;;;;;;;;;;;14.98;100.00;96608.74;135457;1272;22590;-79
2023/10/20 09:33:17;;;;;;;;;;;;;;;15.05;100.00;96606.17;135414;1272;22529;-82
2023/10/20 09:36:19;;;;;;;;;;;;;;;15.08;100.00;96606.73;135192;1272;22694;-80
2023/10/20 09:39:24;;;;;;;;;;;;;;;15.10;100.00;96606.49;134963;1272;25096;-78
2023/10/20 09:42:27;;;;;;;;;;;;;;;15.02;100.00;96598.57;135081;1269;22524;-80
2023/10/20 09:45:30;;;;;;;;;;;;;;;14.87;100.00;96596.57;136802;1272;23122;-81
2023/10/20 09:48:33;;;;;;;;;;;;;;;14.83;100.00;96594.83;136676;1272;22999;-81
2023/10/20 09:51:36;;;;;;;;;;;;;;;14.79;100.00;96586.23;136637;1272;23246;-80
2023/10/20 09:54:39;;;;;;;;;;;;;;;14.85;100.00;96584.77;136715;1272;22889;-81
2023/10/20 09:57:41;;;;;;;;;;;;;;;14.96;100.00;96582.21;136596;1272;22512;-80
2023/10/20 10:00:44;;;;;;;;;;;;;;;15.04;100.00;96572.05;136631;1272;22643;-79
2023/10/20 10:03:47;;;;;;;;;;;;;;;15.08;100.00;96575.76;136579;1272;22538;-83
2023/10/20 10:06:49;;;;;;;;;;;;;;;15.17;100.00;96565.21;136426;1272;22539;-80
2023/10/20 10:09:55;;;;;;;;;;;;;;;15.26;100.00;96572.84;136508;1272;22513;-82
2023/10/20 10:12:59;;;;;;;;;;;;;;;15.26;100.00;96575.86;136608;1272;22539;-81
2023/10/20 10:16:02;;;;;;;;;;;;;;;15.26;100.00;96574.27;136626;1272;22605;-80
2023/10/20 10:19:04;;;;;;;;;;;;;;;15.22;100.00;96569.20;137084;1272;22967;-79
2023/10/20 10:22:09;;;;;;;;;;;;;;;15.18;100.00;96569.52;136211;1272;24262;-80
2023/10/20 10:25:12;;;;;;;;;;;;;;;15.13;100.00;96567.46;137141;1272;22530;-79
2023/10/20 10:28:14;;;;;;;;;;;;;;;15.08;100.00;96572.58;137082;1272;22523;-80
2023/10/20 10:31:17;;;;;;;;;;;;;;;15.04;100.00;96571.02;135787;1272;22531;-79
2023/10/20 10:34:20;;;;;;;;;;;;;;;15.01;100.00;96571.66;135787;1272;22703;-78
2023/10/20 10:37:22;;;;;;;;;;;;;;;15.02;100.00;96571.43;136710;1272;22950;-81
2023/10/20 10:40:25;;;;;;;;;;;;;;;15.05;100.00;96570.09;135370;1272;22573;-81
2023/10/20 10:43:30;;;;;;;;;;;;;;;15.08;100.00;96567.35;135450;1272;22670;-81
2023/10/20 10:46:33;;;;;;;;;;;;;;;15.06;100.00;96557.23;135257;1272;23028;-80
2023/10/20 10:49:35;;;;;;;;;;;;;;;15.04;100.00;96554.19;135163;1272;23223;-80
2023/10/20 10:52:38;;;;;;;;;;;;;;;15.01;100.00;96545.23;135174;1272;24732;-79
2023/10/20 10:55:40;;;;;;;;;;;;;;;14.97;100.00;96544.69;135381;1272;22969;-80
2023/10/20 10:58:43;;;;;;;;;;;;;;;14.93;100.00;96548.17;135636;1272;22541;-80
2023/10/20 11:01:46;;;;;;;;;;;;;;;14.83;100.00;96535.66;135488;1272;22564;-79
2023/10/20 11:04:48;;;;;;;;;;;;;;;14.83;100.00;96539.66;136754;1272;22443;-78
2023/10/20 11:07:51;;;;;;;;;;;;;;;14.85;100.00;96539.76;135474;1272;22525;-80
2023/10/20 11:10:53;;;;;;;;;;;;;;;14.87;100.00;96540.55;135618;1272;22858;-80
2023/10/20 11:13:56;;;;;;;;;;;;;;;14.90;100.00;96547.23;135353;1272;22548;-79
2023/10/20 11:16:58;;;;;;;;;;;;;;;14.94;100.00;96558.99;135507;1272;24190;-79
2023/10/20 11:20:01;;;;;;;;;;;;;;;14.93;100.00;96564.98;135455;1272;22554;-80
2023/10/20 11:23:07;;;;;;;;;;;;;;;14.92;100.00;96565.03;135760;1272;23809;-81
2023/10/20 11:26:09;;;;;;;;;;;;;;;14.88;100.00;96561.70;135673;1272;24161;-79
2023/10/20 11:29:12;;;;;;;;;;;;;;;14.82;100.00;96569.46;136017;1272;22613;-79
2023/10/20 11:32:15;;;;;;;;;;;;;;;14.80;100.00;96576.73;135424;1272;23350;-79
2023/10/20 11:35:18;;;;;;;;;;;;;;;14.78;100.00;96582.44;135302;1266;25230;-79
2023/10/20 11:38:21;;;;;;;;;;;;;;;14.71;100.00;96582.15;135386;1272;22575;-80
2023/10/20 11:41:24;;;;;;;;;;;;;;;14.62;100.00;96588.29;135432;1272;22456;-80
2023/10/20 11:44:27;;;;;;;;;;;;;;;14.55;100.00;96590.47;135385;1272;22980;-81
2023/10/20 11:47:29;;;;;;;;;;;;;;;14.48;100.00;96588.83;135384;1272;24237;-80
2023/10/20 11:50:32;;;;;;;;;;;;;;;14.45;100.00;96590.38;136646;1272;22525;-79
2023/10/20 11:53:35;;;;;;;;;;;;;;;14.43;100.00;96586.77;136731;1272;22542;-78
2023/10/20 11:56:37;;;;;;;;;;;;;;;14.42;100.00;96575.94;135156;1272;25319;-80
2023/10/20 11:59:40;;;;;;;;;;;;;;;14.44;100.00;96569.23;135410;1272;22540;-79
2023/10/20 12:02:42;;;;;;;;;;;;;;;14.45;100.00;96568.84;135346;1272;22553;-79
2023/10/20 12:05:47;;;;;;;;;;;;;;;14.46;100.00;96566.35;135305;1272;22600;-80
2023/10/20 12:08:50;;;;;;;;;;;;;;;14.55;100.00;96563.00;137545;1272;22295;-79
2023/10/20 12:11:53;;;;;;;;;;;;;;;14.68;100.00;96556.17;137503;1272;22213;-79
2023/10/20 12:14:55;;;;;;;;;;;;;;;14.80;100.00;96555.89;137496;1272;22245;-79
2023/10/20 12:18:00;;;;;;;;;;;;;;;14.87;100.00;96546.84;137480;1268;22399;-79
2023/10/20 12:21:02;;;;;;;;;;;;;;;14.85;100.00;96542.37;137481;1272;22637;-80
2023/10/20 12:24:05;;;;;;;;;;;;;;;14.85;100.00;96539.42;137462;1272;22240;-79
2023/10/20 12:27:07;;;;;;;;;;;;;;;14.82;100.00;96538.48;137441;1272;22315;-79
2023/10/20 12:30:10;;;;;;;;;;;;;;;14.72;100.00;96543.24;137504;1272;22153;-79
2023/10/20 12:33:13;;;;;;;;;;;;;;;14.67;100.00;96532.07;137532;1272;22164;-80
2023/10/20 12:36:16;;;;;;;;;;;;;;;14.69;100.00;96526.76;137506;1272;22212;-80
2023/10/20 12:39:20;;;;;;;;;;;;;;;14.74;100.00;96521.30;137530;1272;22238;-80
2023/10/20 12:42:22;;;;;;;;;;;;;;;14.80;100.00;96516.88;137507;1272;22400;-80
2023/10/20 12:45:28;;;;;;;;;;;;;;;14.89;100.00;96515.41;137545;1272;22731;-80
2023/10/20 12:48:30;;;;;;;;;;;;;;;14.94;100.00;96508.75;137524;1272;22729;-79
2023/10/20 12:51:33;;;;;;;;;;;;;;;14.92;100.00;96502.16;137481;1272;22246;-79
2023/10/20 12:54:35;;;;;;;;;;;;;;;14.86;100.00;96505.59;137564;1272;22303;-79
2023/10/20 12:57:38;;;;;;;;;;;;;;;14.75;100.00;96509.20;137526;1272;22341;-80
2023/10/20 13:00:40;;;;;;;;;;;;;;;14.64;100.00;96506.96;137547;1272;22292;-81
2023/10/20 13:03:43;;;;;;;;;;;;;;;14.58;100.00;96505.32;137527;1272;22482;-82
2023/10/20 13:06:45;;;;;;;;;;;;;;;14.50;100.00;96501.95;137562;1272;22985;-81
2023/10/20 13:09:50;;;;;;;;;;;;;;;14.44;100.00;96498.90;137537;1272;23049;-82
2023/10/20 13:12:53;;;;;;;;;;;;;;;14.40;100.00;96502.88;137566;1272;22260;-81
2023/10/20 13:15:56;;;;;;;;;;;;;;;14.37;100.00;96500.89;137569;1272;22448;-82
2023/10/20 13:19:00;;;;;;;;;;;;;;;14.35;100.00;96497.13;137608;1272;22512;-81
2023/10/20 13:22:03;;;;;;;;;;;;;;;14.33;100.00;96493.88;137594;1270;22201;-81
2023/10/20 13:25:06;;;;;;;;;;;;;;;14.31;100.00;96500.61;137535;1272;22996;-80
2023/10/20 13:28:08;;;;;;;;;;;;;;;14.28;100.00;96497.93;137555;1272;22825;-82
2023/10/20 13:31:16;;;;;;;;;;;;;;;14.27;100.00;96487.13;137593;1272;22140;-82
2023/10/20 13:34:18;;;;;;;;;;;;;;;14.25;100.00;96485.45;137590;1272;22376;-81
2023/10/20 13:37:21;;;;;;;;;;;;;;;14.20;100.00;96482.70;137606;1272;22254;-81
2023/10/20 13:40:23;;;;;;;;;;;;;;;14.17;100.00;96482.63;137570;1272;22700;-82
2023/10/20 13:43:26;;;;;;;;;;;;;;;14.15;100.00;96480.96;137581;1272;22892;-81
2023/10/20 13:46:29;;;;;;;;;;;;;;;14.12;100.00;96475.64;137639;1272;22712;-81
2023/10/20 13:49:31;;;;;;;;;;;;;;;14.11;100.00;96475.36;136677;1272;25444;-78
2023/10/20 13:52:34;;;;;;;;;;;;;;;14.10;100.00;96474.16;135440;1272;22513;-82
2023/10/20 13:55:38;;;;;;;;;;;;;;;14.08;100.00;96471.79;136413;1272;22507;-82
2023/10/20 13:58:42;;;;;;;;;;;;;;;14.07;100.00;96468.89;136336;1272;24173;-81
2023/10/20 14:01:44;;;;;;;;;;;;;;;14.06;100.00;96470.66;136326;1272;22998;-81
2023/10/20 14:04:47;;;;;;;;;;;;;;;14.03;100.00;96478.63;136619;1272;22552;-82
2023/10/20 14:07:49;;;;;;;;;;;;;;;14.12;100.00;96479.68;136908;1272;22550;-81
2023/10/20 14:10:54;;;;;;;;;;;;;;;14.19;100.00;96478.71;136844;1267;22559;-80
2023/10/20 14:13:56;;;;;;;;;;;;;;;14.18;100.00;96478.23;136945;1272;22565;-80
2023/10/20 14:17:05;;;;;;;;;;;;;;;14.15;100.00;96479.75;136848;1272;22543;-81
2023/10/20 14:20:08;;;;;;;;;;;;;;;14.11;100.00;96479.89;136626;1272;22457;-81
2023/10/20 14:23:12;;;;;;;;;;;;;;;14.08;100.00;96474.59;136617;1272;22529;-81
2023/10/20 14:26:15;;;;;;;;;;;;;;;14.05;100.00;96477.86;136333;1272;22516;-81
2023/10/20 14:29:18;;;;;;;;;;;;;;;14.05;100.00;96476.14;136084;1272;24479;-81
2023/10/20 14:32:21;;;;;;;;;;;;;;;14.03;100.00;96478.27;136001;1272;24961;-79
2023/10/20 14:35:24;;;;;;;;;;;;;;;14.04;100.00;96476.86;135933;1272;22635;-81
2023/10/20 14:38:27;;;;;;;;;;;;;;;14.04;100.00;96479.30;136019;1272;22529;-82
2023/10/20 14:41:29;;;;;;;;;;;;;;;14.04;100.00;96480.88;135993;1272;22535;-81
2023/10/20 14:44:32;;;;;;;;;;;;;;;14.03;100.00;96481.59;136096;1272;22533;-81
2023/10/20 14:47:35;;;;;;;;;;;;;;;14.04;100.00;96478.27;136148;1272;22635;-81
2023/10/20 14:50:37;;;;;;;;;;;;;;;14.03;100.00;96478.98;135999;1272;26005;-82
2023/10/20 14:53:40;;;;;;;;;;;;;;;14.03;100.00;96478.81;136089;1272;22519;-82
2023/10/20 14:56:42;;;;;;;;;;;;;;;14.02;100.00;96479.90;135992;1272;22505;-84
2023/10/20 14:59:45;;;;;;;;;;;;;;;14.01;100.00;96481.14;135767;1272;25444;-84
2023/10/20 15:02:47;;;;;;;;;;;;;;;14.00;100.00;96482.41;135989;1272;22624;-84
2023/10/20 15:05:51;;;;;;;;;;;;;;;14.00;100.00;96487.84;136085;1272;22526;-84
2023/10/20 15:08:54;;;;;;;;;;;;;;;14.01;100.00;96492.17;136049;1272;22625;-84
2023/10/20 15:11:56;;;;;;;;;;;;;;;14.01;100.00;96497.40;136257;1272;25900;-82
2023/10/20 15:15:00;;;;;;;;;;;;;;;14.03;100.00;96500.48;136484;1272;22547;-82
2023/10/20 15:18:02;;;;;;;;;;;;;;;14.04;100.00;96504.48;136348;1272;23030;-81
2023/10/20 15:21:05;;;;;;;;;;;;;;;14.03;100.00;96501.00;136351;1272;22531;-83
2023/10/20 15:24:09;;;;;;;;;;;;;;;14.03;100.00;96496.13;136103;1272;24986;-83
2023/10/20 15:27:12;;;;;;;;;;;;;;;14.02;100.00;96496.66;135952;1272;25217;-83
2023/10/20 15:30:14;;;;;;;;;;;;;;;14.02;100.00;96497.39;135867;1272;22556;-84
2023/10/20 15:33:16;;;;;;;;;;;;;;;14.01;100.00;96497.08;136142;1272;22542;-82
2023/10/20 15:36:21;;;;;;;;;;;;;;;14.01;100.00;96499.86;136283;1272;22514;-83
2023/10/20 15:39:23;;;;;;;;;;;;;;;14.01;100.00;96495.14;136034;1272;22522;-83
2023/10/20 15:42:27;;;;;;;;;;;;;;;14.01;100.00;96495.69;136100;1272;22519;-83
2023/10/20 15:45:30;;;;;;;;;;;;;;;14.00;100.00;96500.45;135958;1272;22560;-83
2023/10/20 15:48:34;;;;;;;;;;;;;;;13.98;100.00;96498.58;135993;1272;22567;-83
2023/10/20 15:51:37;;;;;;;;;;;;;;;13.98;100.00;96503.12;136080;1260;22616;-83